Time;durP1;ratioP1;P1;durP2;ratioP2;P2;SDS_P1;SDS_P2;PMS_P1;PMS_P2;Temp;Humidity;BMP_temperature;BMP_pressure;BME280_temperature;BME280_humidity;BME280_pressure;Samples;Min_cycle;Max_cycle;Signal;HPM_P1;HPM_P2
2022/08/26 00:01:42;;;;;;;10.45;1.85;;;;;;;21.36;100.00;101601.63;5049447;28;20068;-75
2022/08/26 00:04:09;;;;;;;5.68;1.42;;;;;;;21.30;100.00;101601.75;5053315;28;20029;-75
2022/08/26 00:06:34;;;;;;;9.10;1.55;;;;;;;21.29;100.00;101602.66;5035549;28;20091;-75
2022/08/26 00:09:00;;;;;;;7.78;1.80;;;;;;;21.26;100.00;101606.25;5036765;28;20481;-75
2022/08/26 00:11:26;;;;;;;7.50;1.17;;;;;;;21.29;100.00;101600.84;5050839;28;20433;-76
2022/08/26 00:13:51;;;;;;;9.23;1.08;;;;;;;21.31;100.00;101609.75;5054505;28;20052;-75
2022/08/26 00:16:17;;;;;;;9.43;1.60;;;;;;;21.31;100.00;101603.50;5053788;28;20091;-75
2022/08/26 00:18:42;;;;;;;5.03;1.10;;;;;;;21.30;100.00;101607.09;5054319;28;20037;-75
2022/08/26 00:21:08;;;;;;;5.95;1.27;;;;;;;21.20;100.00;101591.19;5043838;28;20116;-75
2022/08/26 00:23:35;;;;;;;7.90;1.15;;;;;;;21.21;100.00;101598.28;5041891;28;20029;-74
2022/08/26 00:26:02;;;;;;;10.60;0.90;;;;;;;21.14;100.00;101601.97;5059603;28;20112;-75
2022/08/26 00:28:27;;;;;;;6.60;1.33;;;;;;;21.18;100.00;101598.34;5053162;28;20029;-75
2022/08/26 00:30:52;;;;;;;5.15;1.33;;;;;;;21.20;100.00;101593.88;5050800;28;20029;-74
2022/08/26 00:33:19;;;;;;;5.05;1.33;;;;;;;21.17;100.00;101596.56;5048941;28;20108;-74
2022/08/26 00:35:45;;;;;;;7.72;1.30;;;;;;;21.21;100.00;101598.28;5034429;28;20056;-73
2022/08/26 00:38:12;;;;;;;3.13;1.40;;;;;;;21.17;100.00;101593.88;5051816;28;20158;-74
2022/08/26 00:40:44;;;;;;;9.13;1.60;;;;;;;21.16;100.00;101602.84;5052872;28;20028;-74
2022/08/26 00:43:11;;;;;;;7.23;1.80;;;;;;;21.18;100.00;101603.69;5044060;28;20052;-74
2022/08/26 00:45:56;;;;;;;6.97;1.48;;;;;;;21.17;100.00;101601.91;5043766;28;20025;-75
2022/08/26 00:48:24;;;;;;;4.57;1.23;;;;;;;21.15;100.00;101597.53;5043529;28;20059;-75
2022/08/26 00:50:57;;;;;;;4.22;1.10;;;;;;;21.15;100.00;101602.88;5046678;28;20030;-75
2022/08/26 00:53:26;;;;;;;6.50;1.30;;;;;;;21.12;100.00;101603.81;5037571;28;20025;-75
2022/08/26 00:56:27;;;;;;;7.85;1.08;;;;;;;21.03;100.00;101606.63;5047769;28;20025;-75
2022/08/26 00:58:55;;;;;;;5.63;1.23;;;;;;;21.05;100.00;101608.38;5035466;28;20541;-75
2022/08/26 01:01:21;;;;;;;5.68;1.20;;;;;;;21.04;100.00;101621.78;5036086;28;20032;-75
2022/08/26 01:03:47;;;;;;;9.65;1.25;;;;;;;21.03;100.00;101609.28;5043269;28;20389;-76
2022/08/26 01:06:13;;;;;;;6.82;1.30;;;;;;;21.00;100.00;101607.53;5042473;28;20033;-75
2022/08/26 01:08:39;;;;;;;7.35;1.33;;;;;;;20.99;100.00;101611.13;5038423;28;20048;-75
2022/08/26 01:11:05;;;;;;;8.07;0.98;;;;;;;20.98;100.00;101601.31;5035820;28;20022;-75
2022/08/26 01:13:31;;;;;;;7.90;1.20;;;;;;;20.95;100.00;101598.69;5049744;28;20104;-75
2022/08/26 01:16:00;;;;;;;5.15;1.00;;;;;;;20.93;100.00;101602.28;5050368;28;20024;-75
2022/08/26 01:18:25;;;;;;;6.40;0.95;;;;;;;20.91;100.00;101605.00;5044704;28;20021;-75
2022/08/26 01:20:54;;;;;;;13.20;1.58;;;;;;;20.92;100.00;101605.88;5038012;28;20040;-74
2022/08/26 01:23:20;;;;;;;6.30;0.90;;;;;;;20.89;100.00;101607.69;5034568;28;20025;-75
2022/08/26 01:25:53;;;;;;;7.10;1.00;;;;;;;20.90;100.00;101595.19;5047308;28;20021;-74
2022/08/26 01:28:25;;;;;;;10.57;1.73;;;;;;;20.89;100.00;101602.34;5044383;28;20021;-76
2022/08/26 01:30:53;;;;;;;9.38;1.00;;;;;;;20.89;100.00;101599.66;5036886;28;20025;-76
2022/08/26 01:33:25;;;;;;;7.13;1.20;;;;;;;20.89;100.00;101606.81;5034568;28;20037;-74
2022/08/26 01:35:51;;;;;;;6.45;1.15;;;;;;;20.83;100.00;101602.41;5042158;28;20380;-75
2022/08/26 01:38:17;;;;;;;9.95;1.30;;;;;;;20.76;100.00;101605.22;5046472;28;20472;-75
2022/08/26 01:40:44;;;;;;;9.18;1.70;;;;;;;20.70;100.00;101606.16;5046514;28;20032;-75
2022/08/26 01:43:15;;;;;;;9.20;1.27;;;;;;;20.71;100.00;101607.94;5049971;28;20032;-75
2022/08/26 01:45:42;;;;;;;5.25;1.10;;;;;;;20.71;100.00;101610.63;5046746;28;20051;-74
2022/08/26 01:48:13;;;;;;;6.75;1.13;;;;;;;20.67;100.00;101615.09;5051631;28;20104;-74
2022/08/26 01:50:39;;;;;;;4.45;1.10;;;;;;;20.71;100.00;101624.00;5034432;28;20408;-75
2022/08/26 01:53:08;;;;;;;6.75;1.33;;;;;;;20.71;100.00;101618.63;5048491;28;20511;-75
2022/08/26 01:55:35;;;;;;;4.93;1.33;;;;;;;20.71;100.00;101613.28;5044255;28;20079;-74
2022/08/26 01:58:08;;;;;;;7.25;1.17;;;;;;;20.71;100.00;101621.31;5044418;28;20029;-75
2022/08/26 02:00:34;;;;;;;5.60;1.20;;;;;;;20.68;100.00;101622.22;5050294;28;20057;-75
2022/08/26 02:03:17;;;;;;;8.80;1.40;;;;;;;20.65;100.00;101618.72;5041275;28;20025;-75
2022/08/26 02:06:04;;;;;;;3.55;0.90;;;;;;;20.60;100.00;101625.91;5033564;28;20043;-75
2022/08/26 02:08:43;;;;;;;7.30;1.98;;;;;;;20.61;100.00;101627.66;5042888;28;20397;-75
2022/08/26 02:11:09;;;;;;;7.70;1.60;;;;;;;20.59;100.00;101625.03;5045836;28;20020;-75
2022/08/26 02:13:43;;;;;;;6.65;1.10;;;;;;;20.59;100.00;101608.06;5033910;28;20108;-74
2022/08/26 02:16:09;;;;;;;5.50;1.02;;;;;;;20.58;100.00;101609.88;5042086;28;20104;-75
2022/08/26 02:18:39;;;;;;;4.00;0.93;;;;;;;20.58;100.00;101609.88;5053406;28;20028;-74
2022/08/26 02:21:06;;;;;;;7.07;1.08;;;;;;;20.60;100.00;101612.53;5048422;28;20552;-74
2022/08/26 02:23:31;;;;;;;5.97;1.00;;;;;;;20.59;100.00;101611.66;5049143;28;20056;-74
2022/08/26 02:26:06;;;;;;;3.97;1.08;;;;;;;20.54;100.00;101616.16;5043142;28;20053;-73
2022/08/26 02:28:37;;;;;;;6.65;0.80;;;;;;;20.53;100.00;101609.03;5045418;28;20096;-74
2022/08/26 02:31:03;;;;;;;7.00;0.85;;;;;;;20.45;100.00;101611.81;5051060;28;20382;-75
2022/08/26 02:33:29;;;;;;;4.35;0.70;;;;;;;20.46;100.00;101621.59;5045350;28;20036;-74
2022/08/26 02:35:55;;;;;;;7.10;0.90;;;;;;;20.46;100.00;101618.94;5039062;28;20041;-74
2022/08/26 02:38:20;;;;;;;5.63;1.20;;;;;;;20.48;100.00;101619.81;5033910;28;20044;-74
2022/08/26 02:40:46;;;;;;;5.55;0.95;;;;;;;20.52;100.00;101621.53;5049040;28;20029;-74
2022/08/26 02:43:12;;;;;;;5.30;1.13;;;;;;;20.53;100.00;101627.75;5048395;28;20083;-75
2022/08/26 02:45:39;;;;;;;4.88;0.80;;;;;;;20.52;100.00;101625.97;5038152;28;20029;-74
2022/08/26 02:48:11;;;;;;;6.70;0.90;;;;;;;20.51;100.00;101627.78;5052796;28;20033;-74
2022/08/26 02:50:37;;;;;;;6.90;0.93;;;;;;;20.51;100.00;101626.88;5050626;28;20488;-75
2022/08/26 02:53:03;;;;;;;5.63;1.27;;;;;;;20.48;100.00;101625.16;5036364;28;20092;-74
2022/08/26 02:55:29;;;;;;;6.50;1.30;;;;;;;20.47;100.00;101619.78;5048765;28;20075;-74
2022/08/26 02:57:54;;;;;;;7.22;1.00;;;;;;;20.47;100.00;101623.38;5052025;28;20025;-75
2022/08/26 03:00:20;;;;;;;4.18;1.00;;;;;;;20.48;100.00;101624.25;5043315;28;20021;-74
2022/08/26 03:02:45;;;;;;;6.32;1.20;;;;;;;20.47;100.00;101620.72;5043250;28;20017;-74
2022/08/26 03:05:11;;;;;;;5.05;0.85;;;;;;;20.43;100.00;101613.63;5039859;28;20067;-73
2022/08/26 03:07:38;;;;;;;4.10;0.75;;;;;;;20.45;100.00;101614.47;5043102;28;20377;-74
2022/08/26 03:10:04;;;;;;;4.53;0.80;;;;;;;20.47;100.00;101618.03;5048080;28;20060;-74
2022/08/26 03:12:30;;;;;;;5.45;0.85;;;;;;;20.48;100.00;101621.56;5037317;28;20055;-75
2022/08/26 03:14:56;;;;;;;3.63;0.80;;;;;;;20.47;100.00;101615.34;5034134;28;20029;-74
2022/08/26 03:17:21;;;;;;;5.30;0.90;;;;;;;20.47;100.00;101615.34;5033118;28;20033;-74
2022/08/26 03:19:47;;;;;;;7.13;1.02;;;;;;;20.43;100.00;101607.38;5042526;28;20473;-74
2022/08/26 03:22:12;;;;;;;5.32;1.10;;;;;;;20.44;100.00;101603.81;5033271;28;20040;-75
2022/08/26 03:24:38;;;;;;;6.30;0.68;;;;;;;20.43;100.00;101607.38;5037094;28;20030;-74
2022/08/26 03:27:03;;;;;;;6.55;0.90;;;;;;;20.39;100.00;101602.06;5055147;28;20025;-74
2022/08/26 03:32:13;;;;;;;5.72;0.82;;;;;;;20.41;100.00;101596.72;5044614;28;20118;-75
2022/08/26 03:34:38;;;;;;;8.25;0.80;;;;;;;20.40;100.00;101597.59;5032967;28;20473;-75
2022/08/26 03:37:03;;;;;;;7.15;1.10;;;;;;;20.43;100.00;101586.91;5041565;28;20109;-74
2022/08/26 03:39:29;;;;;;;4.20;0.80;;;;;;;20.42;100.00;101586.91;5038851;28;20098;-74
2022/08/26 03:41:54;;;;;;;6.85;0.85;;;;;;;20.42;100.00;101595.81;5044802;28;20024;-75
2022/08/26 03:44:20;;;;;;;7.85;0.75;;;;;;;20.42;100.00;101603.81;5050286;28;20028;-74
2022/08/26 03:46:45;;;;;;;4.47;1.45;;;;;;;20.43;100.00;101604.69;5056202;28;20099;-75
2022/08/26 03:49:11;;;;;;;3.60;0.82;;;;;;;20.43;100.00;101602.03;5050344;28;20021;-74
2022/08/26 03:51:37;;;;;;;5.30;0.80;;;;;;;20.43;100.00;101602.03;5038654;28;20024;-75
2022/08/26 03:54:04;;;;;;;3.20;0.68;;;;;;;20.41;100.00;101603.84;5041270;28;20110;-75
2022/08/26 03:56:29;;;;;;;5.65;0.65;;;;;;;20.38;100.00;101594.94;5039205;28;20025;-75
2022/08/26 03:58:55;;;;;;;6.35;1.02;;;;;;;20.37;100.00;101600.31;5049141;28;20057;-75
2022/08/26 04:01:21;;;;;;;4.05;0.80;;;;;;;20.36;100.00;101598.53;5046300;28;20029;-75
2022/08/26 04:03:58;;;;;;;3.78;0.80;;;;;;;20.34;100.00;101595.03;5049349;28;20031;-75
2022/08/26 04:06:31;;;;;;;5.28;0.95;;;;;;;20.35;100.00;101588.78;5050305;28;20029;-76
2022/08/26 04:08:58;;;;;;;4.65;0.68;;;;;;;20.34;100.00;101587.88;5046328;28;20050;-75
2022/08/26 04:11:30;;;;;;;5.97;0.82;;;;;;;20.36;100.00;101588.75;5055378;28;20365;-75
2022/08/26 04:13:58;;;;;;;6.05;0.70;;;;;;;20.37;100.00;101587.84;5052837;28;20074;-76
2022/08/26 04:16:24;;;;;;;7.70;1.65;;;;;;;20.40;100.00;101581.56;5054298;28;20112;-76
2022/08/26 04:18:49;;;;;;;5.72;0.93;;;;;;;20.41;100.00;101594.03;5042646;28;20112;-76
2022/08/26 04:21:14;;;;;;;4.55;1.00;;;;;;;20.39;100.00;101595.84;5051989;28;20021;-74
2022/08/26 04:23:40;;;;;;;4.00;0.73;;;;;;;20.34;100.00;101597.69;5050753;28;20071;-74
2022/08/26 04:26:05;;;;;;;4.30;0.88;;;;;;;20.34;100.00;101595.88;5047192;28;20099;-74
2022/08/26 04:28:31;;;;;;;4.93;0.90;;;;;;;20.35;100.00;101595.00;5047969;28;20020;-74
2022/08/26 04:30:56;;;;;;;6.05;0.77;;;;;;;20.39;100.00;101598.53;5042027;28;20025;-74
2022/08/26 04:33:22;;;;;;;4.25;0.90;;;;;;;20.39;100.00;101595.84;5038625;28;20092;-74
2022/08/26 04:35:48;;;;;;;3.70;0.90;;;;;;;20.42;100.00;101597.59;5048924;28;20025;-75
2022/08/26 04:38:15;;;;;;;6.25;0.68;;;;;;;20.41;100.00;101591.34;5054206;28;20060;-74
2022/08/26 04:40:44;;;;;;;5.40;0.88;;;;;;;20.39;100.00;101596.72;5039025;28;20175;-75
2022/08/26 04:43:09;;;;;;;6.90;1.10;;;;;;;20.42;100.00;101598.47;5035618;28;20063;-75
2022/08/26 04:45:36;;;;;;;3.53;0.88;;;;;;;20.37;100.00;101603.91;5038885;28;20107;-74
2022/08/26 04:48:02;;;;;;;4.32;0.93;;;;;;;20.38;100.00;101600.28;5038696;28;20457;-76
2022/08/26 04:50:27;;;;;;;8.68;1.45;;;;;;;20.36;100.00;101603.88;5044817;28;20036;-75
2022/08/26 04:52:52;;;;;;;4.38;0.88;;;;;;;20.35;100.00;101610.16;5035287;28;20128;-74
2022/08/26 04:55:18;;;;;;;7.95;1.33;;;;;;;20.35;100.00;101611.03;5039933;28;20469;-75
2022/08/26 04:57:43;;;;;;;11.35;1.15;;;;;;;20.37;100.00;101616.34;5037350;28;20033;-75
2022/08/26 05:00:11;;;;;;;5.82;1.25;;;;;;;20.34;100.00;101611.94;5041487;28;20105;-73
2022/08/26 05:02:36;;;;;;;4.68;1.00;;;;;;;20.32;100.00;101620.88;5040019;28;20033;-74
2022/08/26 05:05:05;;;;;;;7.70;1.15;;;;;;;20.29;100.00;101620.91;5040298;28;20477;-73
2022/08/26 05:07:31;;;;;;;8.38;1.40;;;;;;;20.25;100.00;101621.84;5039124;28;20060;-73
2022/08/26 05:09:57;;;;;;;7.78;1.27;;;;;;;20.28;100.00;101622.72;5046849;28;20021;-74
2022/08/26 05:12:22;;;;;;;7.38;1.17;;;;;;;20.30;100.00;101628.91;5053136;28;20029;-73
2022/08/26 05:14:47;;;;;;;12.15;1.00;;;;;;;20.31;100.00;101619.13;5043889;28;20025;-73
2022/08/26 05:17:13;;;;;;;7.07;1.08;;;;;;;20.33;100.00;101617.31;5040498;28;20028;-74
2022/08/26 05:19:38;;;;;;;6.20;1.30;;;;;;;20.34;100.00;101619.06;5042763;28;20049;-74
2022/08/26 05:22:04;;;;;;;6.93;0.90;;;;;;;20.33;100.00;101619.97;5051958;28;20041;-73
2022/08/26 05:24:29;;;;;;;7.15;1.10;;;;;;;20.34;100.00;101625.28;5046079;28;20083;-73
2022/08/26 05:26:55;;;;;;;5.55;1.05;;;;;;;20.35;100.00;101627.06;5050245;28;20029;-74
2022/08/26 05:29:20;;;;;;;6.35;0.88;;;;;;;20.35;100.00;101628.88;5036040;28;20032;-73
2022/08/26 05:31:50;;;;;;;6.20;0.98;;;;;;;20.33;100.00;101628.00;5047070;28;20025;-73
2022/08/26 05:34:16;;;;;;;6.47;1.13;;;;;;;20.35;100.00;101631.53;5040557;28;20036;-73
2022/08/26 05:36:41;;;;;;;7.07;0.88;;;;;;;20.36;100.00;101638.63;5037778;28;20112;-72
2022/08/26 05:39:07;;;;;;;6.97;0.75;;;;;;;20.38;100.00;101636.84;5039196;28;20041;-73
2022/08/26 05:41:36;;;;;;;9.95;1.17;;;;;;;20.36;100.00;101638.63;5040859;28;20162;-73
2022/08/26 05:44:04;;;;;;;5.85;1.25;;;;;;;20.38;100.00;101632.38;5034750;28;20033;-73
2022/08/26 05:46:30;;;;;;;7.97;1.23;;;;;;;20.37;100.00;101632.41;5036078;28;20029;-73
2022/08/26 05:48:56;;;;;;;2.08;0.60;;;;;;;20.40;100.00;101632.34;5036976;28;20358;-74
2022/08/26 05:51:22;;;;;;;6.57;0.70;;;;;;;20.40;100.00;101635.03;5053062;28;20048;-73
2022/08/26 05:53:48;;;;;;;3.20;0.80;;;;;;;20.41;100.00;101642.16;5049378;28;20131;-73
2022/08/26 05:56:14;;;;;;;3.72;0.60;;;;;;;20.40;100.00;101640.38;5046377;28;20443;-72
2022/08/26 05:58:41;;;;;;;6.97;0.70;;;;;;;20.40;100.00;101645.72;5033259;28;20033;-71
2022/08/26 06:01:13;;;;;;;6.07;0.85;;;;;;;20.40;100.00;101656.41;5037609;28;20032;-68
2022/08/26 06:03:43;;;;;;;6.43;0.65;;;;;;;20.38;100.00;101650.22;5040778;28;20480;-71
2022/08/26 06:06:11;;;;;;;2.28;0.57;;;;;;;20.38;100.00;101650.22;5049577;28;20060;-71
2022/08/26 06:08:37;;;;;;;1.27;0.50;;;;;;;20.41;100.00;101644.81;5033393;28;20132;-70
2022/08/26 06:11:06;;;;;;;4.88;0.60;;;;;;;20.43;100.00;101643.03;5047099;28;20112;-71
2022/08/26 06:13:33;;;;;;;2.95;0.65;;;;;;;20.49;100.00;101650.09;5042240;28;20025;-70
2022/08/26 06:15:59;;;;;;;5.82;1.10;;;;;;;20.52;100.00;101656.28;5039910;28;20055;-71
2022/08/26 06:18:36;;;;;;;2.88;0.85;;;;;;;20.55;100.00;101656.25;5045387;28;20037;-72
2022/08/26 06:21:23;;;;;;;7.97;1.00;;;;;;;20.58;100.00;101660.69;5047290;28;20098;-72
2022/08/26 06:26:37;;;;;;;8.80;0.68;;;;;;;20.55;100.00;101666.94;5059671;28;20508;-71
2022/08/26 06:29:04;;;;;;;6.00;0.80;;;;;;;20.47;100.00;101674.19;5033076;28;20124;-71
2022/08/26 06:31:31;;;;;;;4.07;0.98;;;;;;;20.41;100.00;101673.34;5043051;28;20025;-71
2022/08/26 06:33:57;;;;;;;4.13;0.70;;;;;;;20.41;100.00;101682.25;5047391;28;20055;-71
2022/08/26 06:36:25;;;;;;;5.10;0.57;;;;;;;20.40;100.00;101683.13;5038925;28;20025;-72
2022/08/26 06:38:52;;;;;;;3.22;0.70;;;;;;;20.43;100.00;101682.22;5041106;28;20026;-71
2022/08/26 06:41:20;;;;;;;2.25;0.50;;;;;;;20.44;100.00;101686.69;5048567;28;20384;-71
2022/08/26 06:43:46;;;;;;;8.60;0.80;;;;;;;20.47;100.00;101684.88;5044971;28;20025;-71
2022/08/26 06:46:13;;;;;;;4.05;0.65;;;;;;;20.54;100.00;101685.69;5040724;28;20057;-71
2022/08/26 06:48:39;;;;;;;6.68;0.80;;;;;;;20.49;100.00;101685.72;5049685;28;20456;-71
2022/08/26 06:51:09;;;;;;;4.28;0.90;;;;;;;20.50;100.00;101690.16;5049505;28;20036;-71
2022/08/26 06:53:35;;;;;;;6.00;1.00;;;;;;;20.53;100.00;101691.94;5057017;28;20032;-71
2022/08/26 06:56:03;;;;;;;1.75;0.40;;;;;;;20.51;100.00;101691.03;5042931;28;20040;-70
2022/08/26 06:58:28;;;;;;;8.88;1.30;;;;;;;20.45;100.00;101692.00;5044017;28;20362;-70
2022/08/26 07:00:54;;;;;;;6.45;1.02;;;;;;;20.38;100.00;101696.53;5043704;28;20112;-70
2022/08/26 07:03:20;;;;;;;14.30;1.40;;;;;;;20.28;100.00;101693.97;5037374;28;20425;-70
2022/08/26 07:05:46;;;;;;;15.60;1.70;;;;;;;20.27;100.00;101695.78;5048161;28;20032;-71
2022/08/26 07:08:12;;;;;;;5.10;1.35;;;;;;;20.17;100.00;101688.72;5034720;28;20034;-70
2022/08/26 07:10:37;;;;;;;3.65;0.75;;;;;;;20.13;100.00;101690.56;5036076;28;20488;-71
2022/08/26 07:13:02;;;;;;;4.43;0.77;;;;;;;20.16;100.00;101692.31;5039696;28;20162;-71
2022/08/26 07:15:28;;;;;;;5.88;1.17;;;;;;;20.16;100.00;101695.88;5035509;28;20044;-71
2022/08/26 07:17:53;;;;;;;3.40;1.08;;;;;;;20.19;100.00;101703.84;5038629;28;21537;-71
2022/08/26 07:20:19;;;;;;;6.10;1.00;;;;;;;20.20;100.00;101705.63;5044822;28;20555;-71
2022/08/26 07:22:45;;;;;;;7.10;0.80;;;;;;;20.25;100.00;101704.69;5036734;28;20420;-71
2022/08/26 07:25:10;;;;;;;7.28;1.23;;;;;;;20.29;100.00;101711.78;5048054;28;20024;-71
2022/08/26 07:27:37;;;;;;;8.30;1.17;;;;;;;20.33;100.00;101706.41;5054679;28;20477;-71
2022/08/26 07:30:06;;;;;;;7.78;0.90;;;;;;;20.38;100.00;101709.03;5047780;28;20024;-71
2022/08/26 07:32:32;;;;;;;7.13;1.05;;;;;;;20.41;100.00;101714.31;5044733;28;20063;-70
2022/08/26 07:34:58;;;;;;;6.35;0.90;;;;;;;20.43;100.00;101707.19;5043137;28;20052;-70
2022/08/26 07:37:23;;;;;;;5.35;0.80;;;;;;;20.42;100.00;101718.78;5053211;28;20033;-71
2022/08/26 07:39:49;;;;;;;3.58;0.68;;;;;;;20.49;100.00;101728.50;5038991;28;20416;-70
2022/08/26 07:42:16;;;;;;;5.90;0.65;;;;;;;20.48;100.00;101725.84;5040718;28;20469;-71
2022/08/26 07:44:42;;;;;;;1.92;0.73;;;;;;;20.51;100.00;101733.81;5036793;28;20413;-71
2022/08/26 07:47:09;;;;;;;3.35;0.50;;;;;;;20.53;100.00;101740.94;5055135;28;20074;-71
2022/08/26 07:49:34;;;;;;;4.82;0.70;;;;;;;20.51;100.00;101744.53;5053321;28;20025;-71
2022/08/26 07:52:00;;;;;;;3.65;0.50;;;;;;;20.54;100.00;101740.03;5055383;28;20388;-71
2022/08/26 07:54:26;;;;;;;11.75;0.80;;;;;;;20.60;100.00;101741.75;5043170;28;20076;-71
2022/08/26 07:56:51;;;;;;;9.40;1.25;;;;;;;20.62;100.00;101736.38;5042590;28;20407;-71
2022/08/26 07:59:17;;;;;;;1.52;0.50;;;;;;;20.71;100.00;101739.00;5055826;28;20116;-71
2022/08/26 08:01:44;;;;;;;2.15;0.40;;;;;;;20.74;100.00;101744.34;5053161;28;20438;-71
2022/08/26 08:04:11;;;;;;;1.55;0.50;;;;;;;20.82;100.00;101739.78;5052332;28;20115;-71
2022/08/26 08:06:37;;;;;;;3.70;0.50;;;;;;;20.84;100.00;101732.59;5053646;28;20033;-71
2022/08/26 08:09:03;;;;;;;4.53;0.68;;;;;;;20.92;100.00;101734.28;5041526;28;20375;-71
2022/08/26 08:11:29;;;;;;;2.70;0.70;;;;;;;20.98;100.00;101739.56;5049562;28;20041;-71
2022/08/26 08:13:56;;;;;;;4.25;0.82;;;;;;;21.04;100.00;101734.16;5046218;28;20067;-71
2022/08/26 08:16:21;;;;;;;2.45;0.43;;;;;;;21.05;100.00;101743.94;5045321;28;20389;-70
2022/08/26 08:18:47;;;;;;;8.50;0.68;;;;;;;21.14;100.00;101749.19;5053361;28;20025;-70
2022/08/26 08:21:13;;;;;;;2.05;0.65;;;;;;;21.14;100.00;101759.88;5038600;28;20396;-71
2022/08/26 08:23:38;;;;;;;6.07;0.50;;;;;;;21.17;100.00;101757.16;5036651;28;20037;-70
2022/08/26 08:26:07;;;;;;;4.15;0.55;;;;;;;21.24;100.00;101757.97;5037215;28;20041;-70
2022/08/26 08:28:32;;;;;;;5.40;0.70;;;;;;;21.38;100.00;101755.13;5037231;28;20060;-71
2022/08/26 08:30:58;;;;;;;1.95;0.60;;;;;;;21.41;100.00;101748.84;5042039;28;20016;-71
2022/08/26 08:33:24;;;;;;;0.60;0.50;;;;;;;21.50;100.00;101754.03;5035324;28;20087;-71
2022/08/26 08:35:50;;;;;;;3.22;0.50;;;;;;;21.56;100.00;101754.88;5047095;28;20431;-71
2022/08/26 08:38:15;;;;;;;4.30;0.50;;;;;;;21.59;100.00;101758.44;5054742;28;20056;-70
2022/08/26 08:40:44;;;;;;;2.63;0.52;;;;;;;21.63;100.00;101768.19;5039942;28;20388;-70
2022/08/26 08:43:21;;;;;;;1.42;0.57;;;;;;;21.74;100.00;101752.81;5040584;28;20477;-70
2022/08/26 08:45:52;;;;;;;3.75;0.60;;;;;;;21.89;100.00;101757.97;5048708;28;20033;-70
2022/08/26 08:48:28;;;;;;;4.38;0.70;;;;;;;21.87;100.00;101758.91;5043788;28;20056;-72
2022/08/26 08:51:08;;;;;;;3.30;0.73;;;;;;;21.81;100.00;101751.84;5036742;28;20548;-72
2022/08/26 08:53:37;;;;;;;4.60;0.60;;;;;;;21.71;100.00;101750.19;5042708;28;20029;-71
2022/08/26 08:56:24;;;;;;;5.43;0.60;;;;;;;21.67;100.00;101751.16;5047522;28;20040;-71
2022/08/26 08:58:58;;;;;;;3.38;0.68;;;;;;;21.74;100.00;101747.47;5042773;28;20078;-71
2022/08/26 09:01:32;;;;;;;4.32;0.77;;;;;;;21.68;100.00;101760.97;5036989;28;20036;-71
2022/08/26 09:04:14;;;;;;;3.35;0.68;;;;;;;21.63;100.00;101761.03;5036406;28;20031;-71
2022/08/26 09:06:41;;;;;;;3.20;0.60;;;;;;;21.59;100.00;101763.78;5041619;28;20026;-71
2022/08/26 09:09:10;;;;;;;2.47;0.50;;;;;;;21.51;100.00;101761.16;5038631;28;20037;-71
2022/08/26 09:11:35;;;;;;;3.83;0.68;;;;;;;21.54;100.00;101762.06;5040796;28;20119;-71
2022/08/26 09:14:01;;;;;;;7.00;0.85;;;;;;;21.49;100.00;101755.84;5036007;28;20505;-71
2022/08/26 09:16:56;;;;;;;3.58;0.68;;;;;;;21.43;100.00;101753.25;5044583;28;20380;-71
2022/08/26 09:19:39;;;;;;;3.38;0.93;;;;;;;21.41;100.00;101755.06;5061689;28;20025;-71
2022/08/26 09:22:05;;;;;;;3.83;0.85;;;;;;;21.37;100.00;101758.69;5036754;28;20075;-70
2022/08/26 09:24:34;;;;;;;6.45;1.10;;;;;;;21.38;100.00;101760.47;5035652;28;20037;-71
2022/08/26 09:27:00;;;;;;;3.80;1.10;;;;;;;21.38;100.00;101757.81;5052755;28;20112;-72
2022/08/26 09:29:29;;;;;;;10.25;1.52;;;;;;;21.42;100.00;101751.50;5041562;28;20092;-71
2022/08/26 09:32:14;;;;;;;8.70;1.20;;;;;;;21.37;100.00;101753.34;5035190;28;20116;-71
2022/08/26 09:34:54;;;;;;;6.43;1.30;;;;;;;21.30;100.00;101762.38;5034473;28;20416;-71
2022/08/26 09:37:34;;;;;;;7.28;1.42;;;;;;;21.32;100.00;101760.53;5044762;28;20104;-71
2022/08/26 09:40:12;;;;;;;8.43;1.30;;;;;;;21.27;100.00;101767.75;5048041;28;20425;-73
2022/08/26 09:42:37;;;;;;;11.05;1.60;;;;;;;21.23;100.00;101758.91;5039225;28;20134;-73
2022/08/26 09:45:09;;;;;;;8.95;1.13;;;;;;;21.26;100.00;101761.53;5039093;28;20539;-72
2022/08/26 09:47:51;;;;;;;6.65;1.25;;;;;;;21.12;100.00;101764.38;5036078;28;20025;-70
2022/08/26 09:50:37;;;;;;;5.80;1.05;;;;;;;21.11;100.00;101762.59;5051156;28;20025;-71
2022/08/26 09:53:10;;;;;;;6.32;1.30;;;;;;;21.10;100.00;101767.97;5039283;28;20094;-71
2022/08/26 09:55:38;;;;;;;6.70;1.20;;;;;;;21.10;100.00;101771.53;5045116;28;20028;-71
2022/08/26 09:58:04;;;;;;;4.78;1.20;;;;;;;20.98;100.00;101777.03;5040356;28;20025;-70
2022/08/26 10:00:29;;;;;;;8.52;1.20;;;;;;;21.01;100.00;101777.00;5049289;28;20492;-71
2022/08/26 10:02:58;;;;;;;5.50;1.77;;;;;;;21.03;100.00;101780.56;5043545;28;20029;-71
2022/08/26 10:05:37;;;;;;;5.57;0.90;;;;;;;21.06;100.00;101772.47;5033931;28;20117;-71
2022/08/26 10:08:28;;;;;;;5.30;0.90;;;;;;;21.03;100.00;101772.53;5034503;28;20084;-72
2022/08/26 10:10:56;;;;;;;2.50;0.85;;;;;;;21.00;100.00;101773.44;5045834;28;20397;-71
2022/08/26 10:13:24;;;;;;;4.00;0.85;;;;;;;21.03;100.00;101767.16;5041091;28;20056;-71
2022/08/26 10:16:07;;;;;;;4.38;0.95;;;;;;;21.06;100.00;101775.16;5044274;28;20040;-71
2022/08/26 10:18:38;;;;;;;8.13;1.08;;;;;;;21.21;100.00;101771.41;5037199;28;20025;-71
2022/08/26 10:21:13;;;;;;;4.68;0.85;;;;;;;21.31;100.00;101772.16;5039040;28;20028;-72
2022/08/26 10:23:43;;;;;;;4.97;1.10;;;;;;;21.41;100.00;101771.13;5036924;28;20026;-71
2022/08/26 10:26:46;;;;;;;9.52;0.90;;;;;;;21.47;100.00;101768.34;5039965;28;20021;-71
2022/08/26 10:29:21;;;;;;;5.65;1.20;;;;;;;21.53;100.00;101764.75;5047586;28;20480;-71
2022/08/26 10:31:56;;;;;;;7.43;1.75;;;;;;;21.53;100.00;101764.75;5042072;28;20358;-70
2022/08/26 10:34:22;;;;;;;5.72;1.23;;;;;;;21.49;100.00;101769.22;5039551;28;20033;-71
2022/08/26 10:37:09;;;;;;;8.40;0.90;;;;;;;21.52;100.00;101769.19;5041942;28;20024;-71
2022/08/26 10:39:38;;;;;;;3.70;1.00;;;;;;;21.51;100.00;101769.22;5039356;28;20481;-69
2022/08/26 10:42:12;;;;;;;6.60;1.10;;;;;;;21.48;100.00;101767.47;5034048;28;20382;-72
2022/08/26 10:44:42;;;;;;;3.45;0.90;;;;;;;21.58;100.00;101767.38;5043831;28;20057;-72
2022/08/26 10:47:19;;;;;;;11.10;1.23;;;;;;;21.61;100.00;101769.97;5035807;28;20120;-71
2022/08/26 10:49:48;;;;;;;4.25;0.82;;;;;;;21.66;100.00;101776.16;5046931;28;20063;-71
2022/08/26 10:52:22;;;;;;;4.18;1.48;;;;;;;21.78;100.00;101775.97;5047378;28;20021;-70
2022/08/26 10:55:12;;;;;;;9.85;1.30;;;;;;;21.82;100.00;101775.03;5040218;28;20020;-71
2022/08/26 10:58:24;;;;;;;5.47;1.00;;;;;;;21.86;100.00;101779.41;5050748;28;20111;-72
2022/08/26 11:04:21;;;;;;;7.88;1.20;;;;;;;21.68;100.00;101777.91;5049559;28;20508;-72
2022/08/26 11:06:46;;;;;;;5.28;1.20;;;;;;;21.84;100.00;101775.00;5043289;28;20039;-71
2022/08/26 11:09:45;;;;;;;7.38;1.27;;;;;;;21.96;100.00;101777.50;5053676;28;20393;-71
2022/08/26 11:12:35;;;;;;;6.15;1.30;;;;;;;22.00;100.00;101781.91;5053739;28;20104;-71
2022/08/26 11:15:11;;;;;;;6.53;1.30;;;;;;;21.97;100.00;101781.94;5039945;28;20013;-71
2022/08/26 11:17:43;;;;;;;4.55;1.70;;;;;;;22.06;100.00;101767.50;5048657;28;20468;-72
2022/08/26 11:20:10;;;;;;;4.55;0.95;;;;;;;22.15;100.00;101770.03;5043181;28;20379;-71
2022/08/26 11:22:37;;;;;;;7.88;1.50;;;;;;;22.23;100.00;101780.63;5041893;28;20033;-71
2022/08/26 11:25:22;;;;;;;3.33;1.02;;;;;;;22.31;100.00;101780.50;5038635;28;20038;-71
2022/08/26 11:27:48;;;;;;;7.80;1.30;;;;;;;22.28;100.00;101780.56;5038288;28;20060;-72
2022/08/26 11:30:16;;;;;;;3.13;0.82;;;;;;;22.30;100.00;101778.72;5036820;28;20026;-73
2022/08/26 11:32:42;;;;;;;3.10;0.98;;;;;;;22.21;100.00;101786.00;5040300;28;20048;-72
2022/08/26 11:35:11;;;;;;;4.82;1.20;;;;;;;22.29;100.00;101779.63;5049397;28;20453;-71